sensor_id;sensor_type;location;lat;lon;timestamp;pressure;altitude;pressure_sealevel;temperature;humidity
28428;BME280;15662;49.128;8.520;2022-09-09T00:09:52;100004.28;;;22.10;55.86
28428;BME280;15662;49.128;8.520;2022-09-09T00:12:57;100011.44;;;22.11;55.99
28428;BME280;15662;49.128;8.520;2022-09-09T00:21:16;100021.34;;;22.10;55.95
28428;BME280;15662;49.128;8.520;2022-09-09T00:23:55;100008.34;;;22.04;56.03
28428;BME280;15662;49.128;8.520;2022-09-09T00:26:45;100010.91;;;22.06;55.71
28428;BME280;15662;49.128;8.520;2022-09-09T00:29:57;100013.25;;;22.10;55.86
28428;BME280;15662;49.128;8.520;2022-09-09T00:32:30;100016.91;;;22.09;55.78
28428;BME280;15662;49.128;8.520;2022-09-09T00:35:18;100015.06;;;22.10;55.82
28428;BME280;15662;49.128;8.520;2022-09-09T00:37:54;100003.06;;;22.03;55.92
28428;BME280;15662;49.128;8.520;2022-09-09T00:40:34;100006.72;;;22.02;55.61
28428;BME280;15662;49.128;8.520;2022-09-09T00:57:30;100032.13;;;22.10;55.75
28428;BME280;15662;49.128;8.520;2022-09-09T01:00:28;100023.31;;;22.08;55.62
28428;BME280;15662;49.128;8.520;2022-09-09T01:09:32;100013.25;;;21.99;55.57
28428;BME280;15662;49.128;8.520;2022-09-09T01:15:21;100012.13;;;22.02;55.72
28428;BME280;15662;49.128;8.520;2022-09-09T01:18:05;99992.88;;;21.95;55.74
28428;BME280;15662;49.128;8.520;2022-09-09T01:27:05;100020.78;;;21.72;56.19
28428;BME280;15662;49.128;8.520;2022-09-09T01:29:34;100011.88;;;21.82;56.11
28428;BME280;15662;49.128;8.520;2022-09-09T01:32:41;100031.41;;;21.97;55.73
28428;BME280;15662;49.128;8.520;2022-09-09T01:35:52;100036.78;;;21.97;55.79
28428;BME280;15662;49.128;8.520;2022-09-09T01:38:31;100032.13;;;21.99;56.08
28428;BME280;15662;49.128;8.520;2022-09-09T01:41:01;100033.72;;;22.02;55.80
28428;BME280;15662;49.128;8.520;2022-09-09T01:43:40;100037.16;;;22.04;55.74
28428;BME280;15662;49.128;8.520;2022-09-09T01:46:11;100042.19;;;22.08;55.86
28428;BME280;15662;49.128;8.520;2022-09-09T01:48:43;100033.97;;;22.10;55.91
28428;BME280;15662;49.128;8.520;2022-09-09T01:51:15;100027.72;;;22.09;55.67
28428;BME280;15662;49.128;8.520;2022-09-09T01:53:45;100027.94;;;22.06;55.51
28428;BME280;15662;49.128;8.520;2022-09-09T02:02:17;100024.91;;;22.11;55.42
28428;BME280;15662;49.128;8.520;2022-09-09T02:07:46;100037.53;;;22.10;55.71
28428;BME280;15662;49.128;8.520;2022-09-09T02:11:05;100029.91;;;22.04;55.73
28428;BME280;15662;49.128;8.520;2022-09-09T02:14:18;100023.91;;;22.01;55.84
28428;BME280;15662;49.128;8.520;2022-09-09T02:16:57;99989.94;;;21.98;55.78
28428;BME280;15662;49.128;8.520;2022-09-09T02:19:52;100007.97;;;21.98;55.85
28428;BME280;15662;49.128;8.520;2022-09-09T02:22:33;100009.19;;;21.94;55.97
28428;BME280;15662;49.128;8.520;2022-09-09T02:25:04;100003.88;;;21.70;56.16
28428;BME280;15662;49.128;8.520;2022-09-09T02:27:34;100013.09;;;21.78;56.18
28428;BME280;15662;49.128;8.520;2022-09-09T02:30:05;100021.56;;;21.85;56.26
28428;BME280;15662;49.128;8.520;2022-09-09T02:32:46;100014.31;;;21.85;55.81
28428;BME280;15662;49.128;8.520;2022-09-09T02:35:20;100007.06;;;21.86;55.88
28428;BME280;15662;49.128;8.520;2022-09-09T02:37:55;100000.81;;;21.85;55.82
28428;BME280;15662;49.128;8.520;2022-09-09T02:40:32;99997.63;;;21.80;55.95
28428;BME280;15662;49.128;8.520;2022-09-09T02:43:03;100000.31;;;21.80;55.89
28428;BME280;15662;49.128;8.520;2022-09-09T02:48:59;99994.06;;;21.80;55.87
28428;BME280;15662;49.128;8.520;2022-09-09T02:52:12;99989.41;;;21.71;55.76
28428;BME280;15662;49.128;8.520;2022-09-09T02:54:43;99994.91;;;21.69;56.02
28428;BME280;15662;49.128;8.520;2022-09-09T02:59:50;99988.66;;;21.69;56.01
28428;BME280;15662;49.128;8.520;2022-09-09T03:02:21;100007.19;;;21.73;56.16
28428;BME280;15662;49.128;8.520;2022-09-09T03:04:55;99999.19;;;21.72;56.01
28428;BME280;15662;49.128;8.520;2022-09-09T03:07:23;99992.59;;;21.76;56.13
28428;BME280;15662;49.128;8.520;2022-09-09T03:09:53;99985.34;;;21.65;56.19
28428;BME280;15662;49.128;8.520;2022-09-09T03:12:24;100003.50;;;21.74;56.04
28428;BME280;15662;49.128;8.520;2022-09-09T03:14:52;99993.81;;;21.72;56.18
28428;BME280;15662;49.128;8.520;2022-09-09T03:17:21;99992.50;;;21.77;56.08
28428;BME280;15662;49.128;8.520;2022-09-09T03:19:55;99997.88;;;21.77;56.02
28428;BME280;15662;49.128;8.520;2022-09-09T03:22:25;99995.06;;;21.79;55.99
28428;BME280;15662;49.128;8.520;2022-09-09T03:24:54;99985.25;;;21.78;55.93
28428;BME280;15662;49.128;8.520;2022-09-09T03:27:22;100002.31;;;21.78;56.00
28428;BME280;15662;49.128;8.520;2022-09-09T03:29:52;99998.75;;;21.78;55.93
28428;BME280;15662;49.128;8.520;2022-09-09T03:32:24;100008.75;;;21.53;56.22
28428;BME280;15662;49.128;8.520;2022-09-09T03:34:56;100014.38;;;21.61;56.35
28428;BME280;15662;49.128;8.520;2022-09-09T03:37:27;100009.50;;;21.67;56.22
28428;BME280;15662;49.128;8.520;2022-09-09T03:39:57;100006.78;;;21.67;56.23
28428;BME280;15662;49.128;8.520;2022-09-09T03:42:28;100004.84;;;21.69;56.17
28428;BME280;15662;49.128;8.520;2022-09-09T03:44:58;100004.72;;;21.70;56.15
28428;BME280;15662;49.128;8.520;2022-09-09T03:47:27;100013.81;;;21.69;56.02
28428;BME280;15662;49.128;8.520;2022-09-09T03:50:04;100021.63;;;21.72;56.11
28428;BME280;15662;49.128;8.520;2022-09-09T03:52:41;100010.13;;;21.70;55.90
28428;BME280;15662;49.128;8.520;2022-09-09T03:55:16;100010.13;;;21.70;56.13
28428;BME280;15662;49.128;8.520;2022-09-09T03:57:45;100005.72;;;21.69;56.04
28428;BME280;15662;49.128;8.520;2022-09-09T04:00:14;100008.28;;;21.71;55.94
28428;BME280;15662;49.128;8.520;2022-09-09T04:02:43;100004.84;;;21.69;55.99
28428;BME280;15662;49.128;8.520;2022-09-09T04:05:15;99995.91;;;21.68;56.03
28428;BME280;15662;49.128;8.520;2022-09-09T04:07:46;100003.22;;;21.66;56.05
28428;BME280;15662;49.128;8.520;2022-09-09T04:10:15;99998.81;;;21.65;56.05
28428;BME280;15662;49.128;8.520;2022-09-09T04:12:44;100012.94;;;21.69;55.92
28428;BME280;15662;49.128;8.520;2022-09-09T04:15:16;100029.22;;;21.67;55.90
28428;BME280;15662;49.128;8.520;2022-09-09T04:17:46;100020.53;;;21.63;56.12
28428;BME280;15662;49.128;8.520;2022-09-09T04:20:15;100013.78;;;21.58;56.08
28428;BME280;15662;49.128;8.520;2022-09-09T04:22:43;100031.91;;;21.67;56.19
28428;BME280;15662;49.128;8.520;2022-09-09T04:25:13;100024.72;;;21.68;56.03
28428;BME280;15662;49.128;8.520;2022-09-09T04:27:42;100032.03;;;21.66;56.07
28428;BME280;15662;49.128;8.520;2022-09-09T04:30:11;100036.47;;;21.67;56.27
28428;BME280;15662;49.128;8.520;2022-09-09T04:32:41;100036.72;;;21.63;56.33
28428;BME280;15662;49.128;8.520;2022-09-09T04:35:10;100045.53;;;21.66;56.09
28428;BME280;15662;49.128;8.520;2022-09-09T04:37:39;100034.88;;;21.64;56.24
28428;BME280;15662;49.128;8.520;2022-09-09T04:40:08;100042.72;;;21.67;56.13
28428;BME280;15662;49.128;8.520;2022-09-09T04:42:40;100039.28;;;21.65;56.16
28428;BME280;15662;49.128;8.520;2022-09-09T04:45:14;100034.38;;;21.59;56.21
28428;BME280;15662;49.128;8.520;2022-09-09T04:47:42;100048.09;;;21.67;56.07
28428;BME280;15662;49.128;8.520;2022-09-09T04:50:11;100043.81;;;21.64;56.11
28428;BME280;15662;49.128;8.520;2022-09-09T04:52:40;100049.72;;;21.70;56.16
28428;BME280;15662;49.128;8.520;2022-09-09T04:55:08;100037.69;;;21.62;55.85
28428;BME280;15662;49.128;8.520;2022-09-09T04:57:38;100038.31;;;21.66;56.12
28428;BME280;15662;49.128;8.520;2022-09-09T05:00:11;100047.66;;;21.73;56.00
28428;BME280;15662;49.128;8.520;2022-09-09T05:02:42;100052.28;;;21.71;56.24
28428;BME280;15662;49.128;8.520;2022-09-09T05:05:11;100059.19;;;21.75;55.96
28428;BME280;15662;49.128;8.520;2022-09-09T05:07:41;100046.28;;;21.68;56.02
28428;BME280;15662;49.128;8.520;2022-09-09T05:10:11;100054.63;;;21.76;56.13
28428;BME280;15662;49.128;8.520;2022-09-09T05:12:42;100060.78;;;21.78;56.12
28428;BME280;15662;49.128;8.520;2022-09-09T05:15:11;100063.22;;;21.81;56.02
28428;BME280;15662;49.128;8.520;2022-09-09T05:17:39;100064.00;;;21.83;56.13
28428;BME280;15662;49.128;8.520;2022-09-09T05:20:07;100051.47;;;21.82;55.95
28428;BME280;15662;49.128;8.520;2022-09-09T05:22:41;100056.63;;;21.85;56.16
28428;BME280;15662;49.128;8.520;2022-09-09T05:25:10;100057.34;;;21.87;55.65
28428;BME280;15662;49.128;8.520;2022-09-09T05:27:40;100062.38;;;21.92;55.60
28428;BME280;15662;49.128;8.520;2022-09-09T05:30:10;100042.41;;;21.83;55.65
28428;BME280;15662;49.128;8.520;2022-09-09T05:32:39;100057.47;;;21.85;55.67
28428;BME280;15662;49.128;8.520;2022-09-09T05:35:08;100068.41;;;21.95;55.41
28428;BME280;15662;49.128;8.520;2022-09-09T05:37:37;100064.22;;;21.91;55.44
28428;BME280;15662;49.128;8.520;2022-09-09T05:40:06;100058.38;;;21.97;55.32
28428;BME280;15662;49.128;8.520;2022-09-09T05:42:35;100060.59;;;21.92;55.28
28428;BME280;15662;49.128;8.520;2022-09-09T05:45:06;100066.22;;;22.00;55.25
28428;BME280;15662;49.128;8.520;2022-09-09T05:47:37;100075.06;;;22.02;55.24
28428;BME280;15662;49.128;8.520;2022-09-09T05:50:08;100076.78;;;22.03;55.22
28428;BME280;15662;49.128;8.520;2022-09-09T05:52:37;100075.81;;;22.04;55.20
28428;BME280;15662;49.128;8.520;2022-09-09T05:55:07;100078.81;;;22.12;55.08
28428;BME280;15662;49.128;8.520;2022-09-09T05:57:37;100079.75;;;22.11;55.00
28428;BME280;15662;49.128;8.520;2022-09-09T06:00:07;100080.38;;;22.15;54.85
28428;BME280;15662;49.128;8.520;2022-09-09T06:02:40;100071.44;;;22.14;54.91
28428;BME280;15662;49.128;8.520;2022-09-09T06:05:12;100072.06;;;22.18;54.93
28428;BME280;15662;49.128;8.520;2022-09-09T06:07:45;100075.75;;;22.17;54.77
28428;BME280;15662;49.128;8.520;2022-09-09T06:10:13;100081.66;;;22.22;54.89
28428;BME280;15662;49.128;8.520;2022-09-09T06:12:44;100077.59;;;22.28;54.92
28428;BME280;15662;49.128;8.520;2022-09-09T06:15:12;100082.50;;;22.34;55.05
28428;BME280;15662;49.128;8.520;2022-09-09T06:17:42;100090.88;;;22.42;54.92
28428;BME280;15662;49.128;8.520;2022-09-09T06:20:14;100088.03;;;22.44;54.76
28428;BME280;15662;49.128;8.520;2022-09-09T06:22:42;100081.66;;;22.45;54.70
28428;BME280;15662;49.128;8.520;2022-09-09T06:25:11;100090.63;;;22.56;54.64
28428;BME280;15662;49.128;8.520;2022-09-09T06:28:01;100080.19;;;22.52;54.68
28428;BME280;15662;49.128;8.520;2022-09-09T06:30:58;100096.38;;;22.63;54.09
28428;BME280;15662;49.128;8.520;2022-09-09T06:33:49;100091.47;;;22.68;54.09
28428;BME280;15662;49.128;8.520;2022-09-09T06:36:25;100099.94;;;22.75;54.09
28428;BME280;15662;49.128;8.520;2022-09-09T06:38:55;100086.41;;;22.75;53.98
28428;BME280;15662;49.128;8.520;2022-09-09T06:41:27;100086.81;;;22.81;53.92
28428;BME280;15662;49.128;8.520;2022-09-09T06:43:57;100102.41;;;22.89;53.77
28428;BME280;15662;49.128;8.520;2022-09-09T06:46:34;100096.34;;;22.85;53.71
28428;BME280;15662;49.128;8.520;2022-09-09T06:49:04;100093.31;;;22.90;53.62
28428;BME280;15662;49.128;8.520;2022-09-09T06:51:37;100092.09;;;22.94;53.49
28428;BME280;15662;49.128;8.520;2022-09-09T06:54:14;100086.31;;;22.99;53.34
28428;BME280;15662;49.128;8.520;2022-09-09T06:56:46;100087.28;;;22.98;53.56
28428;BME280;15662;49.128;8.520;2022-09-09T06:59:21;100086.91;;;23.02;53.39
28428;BME280;15662;49.128;8.520;2022-09-09T07:01:53;100089.72;;;23.12;53.54
28428;BME280;15662;49.128;8.520;2022-09-09T07:04:25;100090.91;;;23.19;53.49
28428;BME280;15662;49.128;8.520;2022-09-09T07:06:54;100085.28;;;23.22;53.39
28428;BME280;15662;49.128;8.520;2022-09-09T07:09:24;100081.19;;;23.28;53.41
28428;BME280;15662;49.128;8.520;2022-09-09T07:11:56;100082.28;;;23.36;53.50
28428;BME280;15662;49.128;8.520;2022-09-09T07:14:27;100089.72;;;23.44;53.26
28428;BME280;15662;49.128;8.520;2022-09-09T07:17:00;100086.16;;;23.55;53.06
28428;BME280;15662;49.128;8.520;2022-09-09T07:19:36;100079.59;;;23.57;52.76
28428;BME280;15662;49.128;8.520;2022-09-09T07:22:09;100088.84;;;23.66;53.07
28428;BME280;15662;49.128;8.520;2022-09-09T07:24:43;100083.88;;;23.71;52.49
28428;BME280;15662;49.128;8.520;2022-09-09T07:27:15;100092.94;;;23.81;52.69
28428;BME280;15662;49.128;8.520;2022-09-09T07:29:43;100080.88;;;23.85;52.36
28428;BME280;15662;49.128;8.520;2022-09-09T07:32:14;100088.06;;;23.96;52.34
28428;BME280;15662;49.128;8.520;2022-09-09T07:34:43;100097.97;;;24.07;52.20
28428;BME280;15662;49.128;8.520;2022-09-09T07:37:12;100096.56;;;24.12;51.81
28428;BME280;15662;49.128;8.520;2022-09-09T07:39:44;100089.28;;;24.13;51.67
28428;BME280;15662;49.128;8.520;2022-09-09T07:42:13;100094.31;;;24.17;51.66
28428;BME280;15662;49.128;8.520;2022-09-09T07:44:44;100097.75;;;23.99;52.21
28428;BME280;15662;49.128;8.520;2022-09-09T07:47:15;100098.50;;;23.80;52.42
28428;BME280;15662;49.128;8.520;2022-09-09T07:49:50;100112.66;;;23.93;52.01
28428;BME280;15662;49.128;8.520;2022-09-09T07:52:26;100104.22;;;23.86;51.53
28428;BME280;15662;49.128;8.520;2022-09-09T07:55:00;100098.97;;;23.85;51.59
28428;BME280;15662;49.128;8.520;2022-09-09T07:57:32;100107.41;;;23.91;51.59
28428;BME280;15662;49.128;8.520;2022-09-09T08:00:04;100104.69;;;23.91;51.35
28428;BME280;15662;49.128;8.520;2022-09-09T08:02:40;100101.34;;;23.99;51.35
28428;BME280;15662;49.128;8.520;2022-09-09T08:05:12;100105.38;;;24.05;51.18
28428;BME280;15662;49.128;8.520;2022-09-09T08:07:41;100100.53;;;24.08;51.41
28428;BME280;15662;49.128;8.520;2022-09-09T08:10:09;100103.75;;;24.23;50.95
28428;BME280;15662;49.128;8.520;2022-09-09T08:12:43;100113.31;;;24.38;50.99
28428;BME280;15662;49.128;8.520;2022-09-09T08:15:32;100108.50;;;24.52;50.68
28428;BME280;15662;49.128;8.520;2022-09-09T08:18:02;100107.03;;;24.68;50.72
28428;BME280;15662;49.128;8.520;2022-09-09T08:20:31;100113.66;;;24.85;50.22
28428;BME280;15662;49.128;8.520;2022-09-09T08:22:59;100112.22;;;24.91;50.18
28428;BME280;15662;49.128;8.520;2022-09-09T08:25:30;100122.53;;;24.97;49.82
28428;BME280;15662;49.128;8.520;2022-09-09T08:27:59;100115.53;;;24.94;49.73
28428;BME280;15662;49.128;8.520;2022-09-09T08:30:32;100132.03;;;24.82;50.59
28428;BME280;15662;49.128;8.520;2022-09-09T08:33:02;100133.63;;;24.84;50.38
28428;BME280;15662;49.128;8.520;2022-09-09T08:35:30;100135.94;;;24.89;50.69
28428;BME280;15662;49.128;8.520;2022-09-09T08:38:00;100133.22;;;24.89;50.95
28428;BME280;15662;49.128;8.520;2022-09-09T08:40:38;100122.47;;;24.87;50.79
28428;BME280;15662;49.128;8.520;2022-09-09T08:43:09;100130.63;;;24.87;50.77
28428;BME280;15662;49.128;8.520;2022-09-09T08:46:12;100127.09;;;24.96;50.61
28428;BME280;15662;49.128;8.520;2022-09-09T08:49:00;100134.03;;;25.10;51.19
28428;BME280;15662;49.128;8.520;2022-09-09T08:51:33;100118.63;;;25.20;50.74
28428;BME280;15662;49.128;8.520;2022-09-09T08:54:03;100124.94;;;25.31;50.53
28428;BME280;15662;49.128;8.520;2022-09-09T08:56:34;100135.53;;;25.43;50.35
28428;BME280;15662;49.128;8.520;2022-09-09T08:59:12;100129.25;;;25.53;49.77
28428;BME280;15662;49.128;8.520;2022-09-09T09:05:42;100133.41;;;25.57;49.73
28428;BME280;15662;49.128;8.520;2022-09-09T09:08:43;100130.13;;;25.63;49.42
28428;BME280;15662;49.128;8.520;2022-09-09T09:11:15;100132.69;;;25.64;49.26
28428;BME280;15662;49.128;8.520;2022-09-09T09:13:57;100126.69;;;25.70;48.43
28428;BME280;15662;49.128;8.520;2022-09-09T09:19:24;100119.09;;;25.55;48.24
28428;BME280;15662;49.128;8.520;2022-09-09T09:22:37;100133.53;;;25.55;47.73
28428;BME280;15662;49.128;8.520;2022-09-09T09:25:22;100127.09;;;25.46;48.18
28428;BME280;15662;49.128;8.520;2022-09-09T09:28:17;100134.38;;;25.46;48.17
28428;BME280;15662;49.128;8.520;2022-09-09T09:31:07;100132.81;;;25.53;48.58
28428;BME280;15662;49.128;8.520;2022-09-09T09:36:10;100126.28;;;25.75;47.95
28428;BME280;15662;49.128;8.520;2022-09-09T09:39:00;100124.00;;;25.90;47.51
28428;BME280;15662;49.128;8.520;2022-09-09T09:41:49;100128.84;;;25.96;47.58
28428;BME280;15662;49.128;8.520;2022-09-09T09:44:38;100128.72;;;26.07;46.89
28428;BME280;15662;49.128;8.520;2022-09-09T09:47:21;100128.72;;;26.07;46.74
28428;BME280;15662;49.128;8.520;2022-09-09T09:50:19;100126.00;;;26.17;46.37
28428;BME280;15662;49.128;8.520;2022-09-09T09:53:05;100133.81;;;26.30;46.42
28428;BME280;15662;49.128;8.520;2022-09-09T09:55:52;100133.38;;;26.34;45.88
28428;BME280;15662;49.128;8.520;2022-09-09T09:58:24;100128.66;;;26.36;45.62
28428;BME280;15662;49.128;8.520;2022-09-09T10:00:53;100130.66;;;26.44;45.90
28428;BME280;15662;49.128;8.520;2022-09-09T10:03:30;100135.06;;;26.55;46.11
28428;BME280;15662;49.128;8.520;2022-09-09T10:06:01;100140.38;;;26.56;45.85
28428;BME280;15662;49.128;8.520;2022-09-09T10:08:29;100135.63;;;26.58;46.13
28428;BME280;15662;49.128;8.520;2022-09-09T10:19:37;100123.88;;;26.67;45.25
28428;BME280;15662;49.128;8.520;2022-09-09T10:22:28;100132.59;;;26.71;45.14
28428;BME280;15662;49.128;8.520;2022-09-09T10:25:37;100118.72;;;26.64;45.25
28428;BME280;15662;49.128;8.520;2022-09-09T10:34:56;100093.13;;;26.67;44.91
28428;BME280;15662;49.128;8.520;2022-09-09T10:47:02;100100.34;;;27.04;44.12
28428;BME280;15662;49.128;8.520;2022-09-09T10:56:01;100091.19;;;27.14;43.51
28428;BME280;15662;49.128;8.520;2022-09-09T11:01:43;100093.28;;;27.20;42.62
28428;BME280;15662;49.128;8.520;2022-09-09T11:04:25;100096.69;;;27.22;42.17
28428;BME280;15662;49.128;8.520;2022-09-09T11:06:55;100101.59;;;27.19;41.87
28428;BME280;15662;49.128;8.520;2022-09-09T11:09:28;100081.63;;;27.10;41.88
28428;BME280;15662;49.128;8.520;2022-09-09T11:12:00;100090.56;;;27.20;41.90
28428;BME280;15662;49.128;8.520;2022-09-09T11:14:44;100079.06;;;27.26;41.68
28428;BME280;15662;49.128;8.520;2022-09-09T11:17:20;100097.03;;;27.37;41.53
28428;BME280;15662;49.128;8.520;2022-09-09T11:19:52;100102.00;;;27.42;41.12
28428;BME280;15662;49.128;8.520;2022-09-09T11:23:03;100088.50;;;27.50;40.61
28428;BME280;15662;49.128;8.520;2022-09-09T11:25:45;100080.97;;;27.44;40.84
28428;BME280;15662;49.128;8.520;2022-09-09T11:28:33;100083.06;;;27.50;40.89
28428;BME280;15662;49.128;8.520;2022-09-09T11:31:41;100079.59;;;27.48;40.54
28428;BME280;15662;49.128;8.520;2022-09-09T11:40:33;100070.28;;;27.33;40.08
28428;BME280;15662;49.128;8.520;2022-09-09T11:43:12;100074.69;;;27.16;41.25
28428;BME280;15662;49.128;8.520;2022-09-09T11:45:42;100057.75;;;27.22;40.34
28428;BME280;15662;49.128;8.520;2022-09-09T11:48:33;100057.47;;;27.25;40.05
28428;BME280;15662;49.128;8.520;2022-09-09T11:51:33;100052.03;;;27.25;40.08
28428;BME280;15662;49.128;8.520;2022-09-09T11:54:31;100052.03;;;27.25;39.86
28428;BME280;15662;49.128;8.520;2022-09-09T11:57:23;100045.56;;;27.26;39.79
28428;BME280;15662;49.128;8.520;2022-09-09T11:59:54;100044.00;;;27.23;39.80
28428;BME280;15662;49.128;8.520;2022-09-09T12:02:28;100044.63;;;27.35;39.57
28428;BME280;15662;49.128;8.520;2022-09-09T12:05:08;100030.47;;;27.32;39.75
28428;BME280;15662;49.128;8.520;2022-09-09T12:10:35;100041.28;;;27.59;39.77
28428;BME280;15662;49.128;8.520;2022-09-09T12:13:22;100051.72;;;27.64;40.03
28428;BME280;15662;49.128;8.520;2022-09-09T12:15:57;100038.31;;;27.70;39.97
28428;BME280;15662;49.128;8.520;2022-09-09T12:18:36;100029.38;;;27.78;39.85
28428;BME280;15662;49.128;8.520;2022-09-09T12:24:49;100045.41;;;28.07;39.54
28428;BME280;15662;49.128;8.520;2022-09-09T12:27:28;100052.06;;;28.13;39.25
28428;BME280;15662;49.128;8.520;2022-09-09T12:30:09;100051.41;;;28.11;39.12
28428;BME280;15662;49.128;8.520;2022-09-09T12:32:39;100070.09;;;28.06;39.11
28428;BME280;15662;49.128;8.520;2022-09-09T12:35:24;100068.69;;;28.01;39.03
28428;BME280;15662;49.128;8.520;2022-09-09T12:38:02;100079.94;;;27.81;39.74
28428;BME280;15662;49.128;8.520;2022-09-09T12:40:34;100075.81;;;27.59;40.55
28428;BME280;15662;49.128;8.520;2022-09-09T12:43:21;100081.16;;;27.33;41.18
28428;BME280;15662;49.128;8.520;2022-09-09T12:46:03;100068.44;;;27.06;42.09
28428;BME280;15662;49.128;8.520;2022-09-09T12:48:40;100085.72;;;26.87;42.84
28428;BME280;15662;49.128;8.520;2022-09-09T12:51:33;100080.38;;;26.67;43.34
28428;BME280;15662;49.128;8.520;2022-09-09T12:54:03;100082.47;;;26.46;44.04
28428;BME280;15662;49.128;8.520;2022-09-09T12:56:33;100082.47;;;26.36;44.58
28428;BME280;15662;49.128;8.520;2022-09-09T12:59:04;100091.38;;;26.19;44.63
28428;BME280;15662;49.128;8.520;2022-09-09T13:01:33;100081.09;;;26.13;45.26
28428;BME280;15662;49.128;8.520;2022-09-09T13:04:15;100083.69;;;26.05;45.28
28428;BME280;15662;49.128;8.520;2022-09-09T13:06:47;100086.28;;;25.96;45.87
28428;BME280;15662;49.128;8.520;2022-09-09T13:09:19;100078.56;;;25.92;46.04
28428;BME280;15662;49.128;8.520;2022-09-09T13:11:54;100090.13;;;25.94;46.48
28428;BME280;15662;49.128;8.520;2022-09-09T13:14:30;100103.00;;;25.92;46.32
28428;BME280;15662;49.128;8.520;2022-09-09T13:17:06;100098.72;;;25.80;45.82
28428;BME280;15662;49.128;8.520;2022-09-09T13:19:37;100081.13;;;25.64;44.99
28428;BME280;15662;49.128;8.520;2022-09-09T13:22:31;100086.53;;;25.55;45.34
28428;BME280;15662;49.128;8.520;2022-09-09T13:25:27;100075.69;;;25.55;45.53
28428;BME280;15662;49.128;8.520;2022-09-09T13:28:03;100086.69;;;25.63;45.94
28428;BME280;15662;49.128;8.520;2022-09-09T13:30:38;100075.00;;;25.72;46.23
28428;BME280;15662;49.128;8.520;2022-09-09T13:35:54;100065.69;;;25.94;45.72
28428;BME280;15662;49.128;8.520;2022-09-09T13:38:24;100072.81;;;25.95;45.42
28428;BME280;15662;49.128;8.520;2022-09-09T13:41:00;100065.97;;;26.01;45.29
28428;BME280;15662;49.128;8.520;2022-09-09T13:43:42;100058.38;;;26.04;45.22
28428;BME280;15662;49.128;8.520;2022-09-09T13:46:40;100050.38;;;26.12;45.55
28428;BME280;15662;49.128;8.520;2022-09-09T13:51:51;100046.63;;;26.23;44.85
28428;BME280;15662;49.128;8.520;2022-09-09T13:54:22;100042.78;;;26.16;45.05
28428;BME280;15662;49.128;8.520;2022-09-09T13:56:50;100041.78;;;26.17;44.83
28428;BME280;15662;49.128;8.520;2022-09-09T13:59:19;100029.22;;;26.16;44.93
28428;BME280;15662;49.128;8.520;2022-09-09T14:01:48;100027.47;;;26.15;44.76
28428;BME280;15662;49.128;8.520;2022-09-09T14:04:20;100028.63;;;26.12;44.89
28428;BME280;15662;49.128;8.520;2022-09-09T14:06:51;100021.78;;;26.08;44.94
28428;BME280;15662;49.128;8.520;2022-09-09T14:09:19;100016.50;;;26.07;44.83
28428;BME280;15662;49.128;8.520;2022-09-09T14:11:47;100018.53;;;25.95;44.77
28428;BME280;15662;49.128;8.520;2022-09-09T14:14:15;100019.13;;;25.89;44.58
28428;BME280;15662;49.128;8.520;2022-09-09T14:16:44;100041.13;;;25.86;44.87
28428;BME280;15662;49.128;8.520;2022-09-09T14:19:13;100043.56;;;25.79;45.04
28428;BME280;15662;49.128;8.520;2022-09-09T14:21:41;100050.84;;;25.79;45.52
28428;BME280;15662;49.128;8.520;2022-09-09T14:24:10;100053.41;;;25.80;46.32
28428;BME280;15662;49.128;8.520;2022-09-09T14:26:40;100062.56;;;25.79;46.79
28428;BME280;15662;49.128;8.520;2022-09-09T14:29:12;100058.28;;;25.86;46.99
28428;BME280;15662;49.128;8.520;2022-09-09T14:31:42;100054.13;;;25.92;46.93
28428;BME280;15662;49.128;8.520;2022-09-09T14:34:10;100040.41;;;25.93;46.23
28428;BME280;15662;49.128;8.520;2022-09-09T14:36:39;100038.34;;;26.05;45.98
28428;BME280;15662;49.128;8.520;2022-09-09T14:39:10;100037.91;;;26.10;45.54
28428;BME280;15662;49.128;8.520;2022-09-09T14:41:39;100044.50;;;26.17;45.12
28428;BME280;15662;49.128;8.520;2022-09-09T14:44:07;100037.47;;;26.14;45.07
28428;BME280;15662;49.128;8.520;2022-09-09T14:46:36;100046.03;;;26.19;45.03
28428;BME280;15662;49.128;8.520;2022-09-09T14:49:04;100051.34;;;26.21;45.56
28428;BME280;15662;49.128;8.520;2022-09-09T14:51:32;100058.19;;;26.25;45.34
28428;BME280;15662;49.128;8.520;2022-09-09T14:54:01;100070.47;;;26.29;45.71
28428;BME280;15662;49.128;8.520;2022-09-09T14:56:32;100070.16;;;26.42;46.20
28428;BME280;15662;49.128;8.520;2022-09-09T14:59:05;100048.28;;;26.43;46.27
28428;BME280;15662;49.128;8.520;2022-09-09T15:01:34;100059.88;;;26.45;46.29
28428;BME280;15662;49.128;8.520;2022-09-09T15:04:05;100053.84;;;26.42;46.24
28428;BME280;15662;49.128;8.520;2022-09-09T15:06:37;100066.00;;;26.38;46.15
28428;BME280;15662;49.128;8.520;2022-09-09T15:09:08;100070.63;;;26.28;46.16
28428;BME280;15662;49.128;8.520;2022-09-09T15:11:37;100074.38;;;26.17;45.92
28428;BME280;15662;49.128;8.520;2022-09-09T15:14:08;100081.25;;;26.11;45.81
28428;BME280;15662;49.128;8.520;2022-09-09T15:16:39;100084.97;;;26.01;45.75
28428;BME280;15662;49.128;8.520;2022-09-09T15:19:08;100071.69;;;25.97;46.33
28428;BME280;15662;49.128;8.520;2022-09-09T15:21:38;100058.25;;;25.96;46.64
28428;BME280;15662;49.128;8.520;2022-09-09T15:24:07;100065.97;;;26.01;46.69
28428;BME280;15662;49.128;8.520;2022-09-09T15:26:37;100041.53;;;25.91;47.00
28428;BME280;15662;49.128;8.520;2022-09-09T15:29:09;100055.09;;;26.01;46.74
28428;BME280;15662;49.128;8.520;2022-09-09T15:31:37;100050.81;;;26.08;47.07
28428;BME280;15662;49.128;8.520;2022-09-09T15:34:07;100039.50;;;26.12;46.83